sensor_id;sensor_type;location;lat;lon;timestamp;temperature;humidity
26342;DHT22;14054;50.108;8.640;2022-07-04T00:00:09;21.10;99.90
26342;DHT22;14054;50.108;8.640;2022-07-04T00:02:35;21.00;99.90
26342;DHT22;14054;50.108;8.640;2022-07-04T00:05:02;21.00;99.90
26342;DHT22;14054;50.108;8.640;2022-07-04T00:07:28;20.90;99.90
26342;DHT22;14054;50.108;8.640;2022-07-04T00:09:53;21.00;99.90
26342;DHT22;14054;50.108;8.640;2022-07-04T00:12:19;20.90;99.90
26342;DHT22;14054;50.108;8.640;2022-07-04T00:14:44;20.80;99.90
26342;DHT22;14054;50.108;8.640;2022-07-04T00:17:10;20.70;99.90
26342;DHT22;14054;50.108;8.640;2022-07-04T00:19:36;20.70;99.90
26342;DHT22;14054;50.108;8.640;2022-07-04T00:22:02;20.60;99.90
26342;DHT22;14054;50.108;8.640;2022-07-04T00:24:27;20.60;99.90
26342;DHT22;14054;50.108;8.640;2022-07-04T00:26:53;20.60;99.90
26342;DHT22;14054;50.108;8.640;2022-07-04T00:29:18;20.70;99.90
26342;DHT22;14054;50.108;8.640;2022-07-04T00:31:44;20.60;99.90
26342;DHT22;14054;50.108;8.640;2022-07-04T00:34:10;20.60;99.90
26342;DHT22;14054;50.108;8.640;2022-07-04T00:36:35;20.60;99.90
26342;DHT22;14054;50.108;8.640;2022-07-04T00:39:01;20.50;99.90
26342;DHT22;14054;50.108;8.640;2022-07-04T00:41:26;20.50;99.90
26342;DHT22;14054;50.108;8.640;2022-07-04T00:44:02;20.40;99.90
26342;DHT22;14054;50.108;8.640;2022-07-04T00:46:28;20.30;99.90
26342;DHT22;14054;50.108;8.640;2022-07-04T00:48:54;20.30;99.90
26342;DHT22;14054;50.108;8.640;2022-07-04T00:51:19;20.20;99.90
26342;DHT22;14054;50.108;8.640;2022-07-04T00:53:45;20.10;99.90
26342;DHT22;14054;50.108;8.640;2022-07-04T00:56:11;20.20;99.90
26342;DHT22;14054;50.108;8.640;2022-07-04T00:58:37;20.20;99.90
26342;DHT22;14054;50.108;8.640;2022-07-04T01:01:03;20.20;99.90
26342;DHT22;14054;50.108;8.640;2022-07-04T01:03:28;20.10;99.90
26342;DHT22;14054;50.108;8.640;2022-07-04T01:05:55;20.10;99.90
26342;DHT22;14054;50.108;8.640;2022-07-04T01:08:20;20.00;99.90
26342;DHT22;14054;50.108;8.640;2022-07-04T01:10:46;19.90;99.90
26342;DHT22;14054;50.108;8.640;2022-07-04T01:13:22;19.90;99.90
26342;DHT22;14054;50.108;8.640;2022-07-04T01:15:48;19.90;99.90
26342;DHT22;14054;50.108;8.640;2022-07-04T01:18:14;19.80;99.90
26342;DHT22;14054;50.108;8.640;2022-07-04T01:20:39;19.80;99.90
26342;DHT22;14054;50.108;8.640;2022-07-04T01:23:05;19.70;99.90
26342;DHT22;14054;50.108;8.640;2022-07-04T01:25:31;19.70;99.90
26342;DHT22;14054;50.108;8.640;2022-07-04T01:27:58;19.60;99.90
26342;DHT22;14054;50.108;8.640;2022-07-04T01:30:24;19.60;99.90
26342;DHT22;14054;50.108;8.640;2022-07-04T01:32:50;19.60;99.90
26342;DHT22;14054;50.108;8.640;2022-07-04T01:35:15;19.60;99.90
26342;DHT22;14054;50.108;8.640;2022-07-04T01:37:41;19.50;99.90
26342;DHT22;14054;50.108;8.640;2022-07-04T01:40:07;19.40;99.90
26342;DHT22;14054;50.108;8.640;2022-07-04T01:42:32;19.40;99.90
26342;DHT22;14054;50.108;8.640;2022-07-04T01:44:58;19.50;99.90
26342;DHT22;14054;50.108;8.640;2022-07-04T01:47:23;19.50;99.90
26342;DHT22;14054;50.108;8.640;2022-07-04T01:49:49;19.50;99.90
26342;DHT22;14054;50.108;8.640;2022-07-04T01:52:14;19.50;99.90
26342;DHT22;14054;50.108;8.640;2022-07-04T01:54:41;19.40;99.90
26342;DHT22;14054;50.108;8.640;2022-07-04T01:57:06;19.30;99.90
26342;DHT22;14054;50.108;8.640;2022-07-04T01:59:32;19.20;99.90
26342;DHT22;14054;50.108;8.640;2022-07-04T02:02:16;19.30;99.90
26342;DHT22;14054;50.108;8.640;2022-07-04T02:04:41;19.20;99.90
26342;DHT22;14054;50.108;8.640;2022-07-04T02:07:07;19.10;99.90
26342;DHT22;14054;50.108;8.640;2022-07-04T02:09:33;19.20;99.90
26342;DHT22;14054;50.108;8.640;2022-07-04T02:11:59;19.10;99.90
26342;DHT22;14054;50.108;8.640;2022-07-04T02:14:43;19.10;99.90
26342;DHT22;14054;50.108;8.640;2022-07-04T02:17:09;19.10;99.90
26342;DHT22;14054;50.108;8.640;2022-07-04T02:19:35;19.00;99.90
26342;DHT22;14054;50.108;8.640;2022-07-04T02:22:00;19.00;99.90
26342;DHT22;14054;50.108;8.640;2022-07-04T02:24:26;19.00;99.90
26342;DHT22;14054;50.108;8.640;2022-07-04T02:26:51;19.00;99.90
26342;DHT22;14054;50.108;8.640;2022-07-04T02:29:17;19.00;99.90
26342;DHT22;14054;50.108;8.640;2022-07-04T02:31:43;19.00;99.90
26342;DHT22;14054;50.108;8.640;2022-07-04T02:34:08;19.10;99.90
26342;DHT22;14054;50.108;8.640;2022-07-04T02:36:34;19.00;99.90
26342;DHT22;14054;50.108;8.640;2022-07-04T02:38:59;19.00;99.90
26342;DHT22;14054;50.108;8.640;2022-07-04T02:41:25;18.90;99.90
26342;DHT22;14054;50.108;8.640;2022-07-04T02:43:51;18.90;99.90
26342;DHT22;14054;50.108;8.640;2022-07-04T02:46:17;18.90;99.90
26342;DHT22;14054;50.108;8.640;2022-07-04T02:48:42;18.90;99.90
26342;DHT22;14054;50.108;8.640;2022-07-04T02:51:08;18.90;99.90
26342;DHT22;14054;50.108;8.640;2022-07-04T02:53:33;18.90;99.90
26342;DHT22;14054;50.108;8.640;2022-07-04T02:55:59;18.90;99.90
26342;DHT22;14054;50.108;8.640;2022-07-04T02:58:31;18.80;99.90
26342;DHT22;14054;50.108;8.640;2022-07-04T03:00:56;18.80;99.90
26342;DHT22;14054;50.108;8.640;2022-07-04T03:03:22;18.90;99.90
26342;DHT22;14054;50.108;8.640;2022-07-04T03:05:47;18.90;99.90
26342;DHT22;14054;50.108;8.640;2022-07-04T03:08:13;18.90;99.90
26342;DHT22;14054;50.108;8.640;2022-07-04T03:10:38;18.90;99.90
26342;DHT22;14054;50.108;8.640;2022-07-04T03:13:03;18.70;99.90
26342;DHT22;14054;50.108;8.640;2022-07-04T03:15:29;18.80;99.90
26342;DHT22;14054;50.108;8.640;2022-07-04T03:17:54;18.80;99.90
26342;DHT22;14054;50.108;8.640;2022-07-04T03:20:20;18.70;99.90
26342;DHT22;14054;50.108;8.640;2022-07-04T03:22:45;18.60;99.90
26342;DHT22;14054;50.108;8.640;2022-07-04T03:25:11;18.60;99.90
26342;DHT22;14054;50.108;8.640;2022-07-04T03:27:36;18.50;99.90
26342;DHT22;14054;50.108;8.640;2022-07-04T03:30:02;18.50;99.90
26342;DHT22;14054;50.108;8.640;2022-07-04T03:32:28;18.40;99.90
26342;DHT22;14054;50.108;8.640;2022-07-04T03:34:53;18.40;99.90
26342;DHT22;14054;50.108;8.640;2022-07-04T03:37:18;18.30;99.90
26342;DHT22;14054;50.108;8.640;2022-07-04T03:39:44;18.30;99.90
26342;DHT22;14054;50.108;8.640;2022-07-04T03:42:09;18.30;99.90
26342;DHT22;14054;50.108;8.640;2022-07-04T03:44:35;18.20;99.90
26342;DHT22;14054;50.108;8.640;2022-07-04T03:47:01;18.20;99.90
26342;DHT22;14054;50.108;8.640;2022-07-04T03:49:27;18.30;99.90
26342;DHT22;14054;50.108;8.640;2022-07-04T03:51:52;18.50;99.90
26342;DHT22;14054;50.108;8.640;2022-07-04T03:54:18;18.60;99.90
26342;DHT22;14054;50.108;8.640;2022-07-04T03:56:43;18.60;99.90
26342;DHT22;14054;50.108;8.640;2022-07-04T03:59:09;18.60;99.90
26342;DHT22;14054;50.108;8.640;2022-07-04T04:01:34;18.50;99.90
26342;DHT22;14054;50.108;8.640;2022-07-04T04:03:59;18.40;99.90
26342;DHT22;14054;50.108;8.640;2022-07-04T04:06:43;18.40;99.90
26342;DHT22;14054;50.108;8.640;2022-07-04T04:09:09;18.40;99.90
26342;DHT22;14054;50.108;8.640;2022-07-04T04:11:42;18.40;99.90
26342;DHT22;14054;50.108;8.640;2022-07-04T04:14:07;18.40;99.90
26342;DHT22;14054;50.108;8.640;2022-07-04T04:16:33;18.50;99.90
26342;DHT22;14054;50.108;8.640;2022-07-04T04:18:58;18.50;99.90
26342;DHT22;14054;50.108;8.640;2022-07-04T04:21:23;18.60;99.90
26342;DHT22;14054;50.108;8.640;2022-07-04T04:23:49;18.60;99.90
26342;DHT22;14054;50.108;8.640;2022-07-04T04:26:15;18.70;99.90
26342;DHT22;14054;50.108;8.640;2022-07-04T04:28:40;18.80;99.90
26342;DHT22;14054;50.108;8.640;2022-07-04T04:31:06;18.80;99.90
26342;DHT22;14054;50.108;8.640;2022-07-04T04:33:31;18.80;99.90
26342;DHT22;14054;50.108;8.640;2022-07-04T04:35:56;18.80;99.90
26342;DHT22;14054;50.108;8.640;2022-07-04T04:38:22;18.80;99.90
26342;DHT22;14054;50.108;8.640;2022-07-04T04:40:47;18.70;99.90
26342;DHT22;14054;50.108;8.640;2022-07-04T04:43:13;18.80;99.90
26342;DHT22;14054;50.108;8.640;2022-07-04T04:45:38;18.80;99.90
26342;DHT22;14054;50.108;8.640;2022-07-04T04:48:05;18.90;99.90
26342;DHT22;14054;50.108;8.640;2022-07-04T04:50:30;18.90;99.90
26342;DHT22;14054;50.108;8.640;2022-07-04T04:52:56;18.90;99.90
26342;DHT22;14054;50.108;8.640;2022-07-04T04:55:22;18.90;99.90
26342;DHT22;14054;50.108;8.640;2022-07-04T04:57:48;18.90;99.90
26342;DHT22;14054;50.108;8.640;2022-07-04T05:00:14;19.00;99.90
26342;DHT22;14054;50.108;8.640;2022-07-04T05:02:39;18.90;99.90
26342;DHT22;14054;50.108;8.640;2022-07-04T05:05:05;19.00;99.90
26342;DHT22;14054;50.108;8.640;2022-07-04T05:07:31;19.00;99.90
26342;DHT22;14054;50.108;8.640;2022-07-04T05:09:57;19.00;99.90
26342;DHT22;14054;50.108;8.640;2022-07-04T05:12:24;19.10;99.90
26342;DHT22;14054;50.108;8.640;2022-07-04T05:14:50;19.20;99.90
26342;DHT22;14054;50.108;8.640;2022-07-04T05:17:16;19.30;99.90
26342;DHT22;14054;50.108;8.640;2022-07-04T05:19:41;19.30;99.90
26342;DHT22;14054;50.108;8.640;2022-07-04T05:22:07;19.40;99.90
26342;DHT22;14054;50.108;8.640;2022-07-04T05:24:32;19.50;99.90
26342;DHT22;14054;50.108;8.640;2022-07-04T05:26:58;19.30;99.90
26342;DHT22;14054;50.108;8.640;2022-07-04T05:29:24;19.40;99.90
26342;DHT22;14054;50.108;8.640;2022-07-04T05:31:49;19.50;99.90
26342;DHT22;14054;50.108;8.640;2022-07-04T05:34:15;19.50;99.90
26342;DHT22;14054;50.108;8.640;2022-07-04T05:36:42;19.50;99.90
26342;DHT22;14054;50.108;8.640;2022-07-04T05:39:07;19.40;99.90
26342;DHT22;14054;50.108;8.640;2022-07-04T05:41:33;19.70;99.90
26342;DHT22;14054;50.108;8.640;2022-07-04T05:43:58;19.60;99.90
26342;DHT22;14054;50.108;8.640;2022-07-04T05:46:23;19.60;99.90
26342;DHT22;14054;50.108;8.640;2022-07-04T05:48:49;19.50;99.90
26342;DHT22;14054;50.108;8.640;2022-07-04T05:51:14;19.50;99.90
26342;DHT22;14054;50.108;8.640;2022-07-04T05:53:40;19.50;99.90
26342;DHT22;14054;50.108;8.640;2022-07-04T05:56:05;19.60;99.90
26342;DHT22;14054;50.108;8.640;2022-07-04T05:58:31;20.00;99.90
26342;DHT22;14054;50.108;8.640;2022-07-04T06:00:56;20.70;99.90
26342;DHT22;14054;50.108;8.640;2022-07-04T06:03:22;20.90;99.90
26342;DHT22;14054;50.108;8.640;2022-07-04T06:05:47;20.80;99.90
26342;DHT22;14054;50.108;8.640;2022-07-04T06:08:14;20.50;99.90
26342;DHT22;14054;50.108;8.640;2022-07-04T06:10:40;20.50;99.90
26342;DHT22;14054;50.108;8.640;2022-07-04T06:13:05;20.50;99.90
26342;DHT22;14054;50.108;8.640;2022-07-04T06:15:31;20.40;99.90
26342;DHT22;14054;50.108;8.640;2022-07-04T06:17:56;20.40;99.90
26342;DHT22;14054;50.108;8.640;2022-07-04T06:20:22;20.50;99.90
26342;DHT22;14054;50.108;8.640;2022-07-04T06:22:48;20.70;99.90
26342;DHT22;14054;50.108;8.640;2022-07-04T06:25:16;20.70;99.90
26342;DHT22;14054;50.108;8.640;2022-07-04T06:27:44;20.80;99.90
26342;DHT22;14054;50.108;8.640;2022-07-04T06:30:10;20.70;99.90
26342;DHT22;14054;50.108;8.640;2022-07-04T06:32:50;20.60;99.90
26342;DHT22;14054;50.108;8.640;2022-07-04T06:35:20;20.80;99.90
26342;DHT22;14054;50.108;8.640;2022-07-04T06:38:05;21.00;99.90
26342;DHT22;14054;50.108;8.640;2022-07-04T06:40:31;21.10;99.90
26342;DHT22;14054;50.108;8.640;2022-07-04T06:42:56;21.00;99.90
26342;DHT22;14054;50.108;8.640;2022-07-04T06:45:22;21.10;99.90
26342;DHT22;14054;50.108;8.640;2022-07-04T06:47:47;21.10;99.90
26342;DHT22;14054;50.108;8.640;2022-07-04T06:50:13;21.40;99.90
26342;DHT22;14054;50.108;8.640;2022-07-04T06:52:39;21.50;99.90
26342;DHT22;14054;50.108;8.640;2022-07-04T06:55:05;21.50;99.90
26342;DHT22;14054;50.108;8.640;2022-07-04T06:57:31;21.30;99.90
26342;DHT22;14054;50.108;8.640;2022-07-04T06:59:57;21.50;99.90
26342;DHT22;14054;50.108;8.640;2022-07-04T07:02:23;21.40;99.90
26342;DHT22;14054;50.108;8.640;2022-07-04T07:04:48;21.50;99.90
26342;DHT22;14054;50.108;8.640;2022-07-04T07:07:14;21.50;99.90
26342;DHT22;14054;50.108;8.640;2022-07-04T07:09:39;21.60;99.90
26342;DHT22;14054;50.108;8.640;2022-07-04T07:12:05;21.50;99.90
26342;DHT22;14054;50.108;8.640;2022-07-04T07:14:30;21.60;99.90
26342;DHT22;14054;50.108;8.640;2022-07-04T07:16:56;21.90;99.90
26342;DHT22;14054;50.108;8.640;2022-07-04T07:19:21;21.70;99.70
26342;DHT22;14054;50.108;8.640;2022-07-04T07:21:47;21.60;99.80
26342;DHT22;14054;50.108;8.640;2022-07-04T07:24:12;21.80;99.90
26342;DHT22;14054;50.108;8.640;2022-07-04T07:26:38;22.20;99.90
26342;DHT22;14054;50.108;8.640;2022-07-04T07:29:03;22.20;99.30
26342;DHT22;14054;50.108;8.640;2022-07-04T07:31:29;22.30;99.10
26342;DHT22;14054;50.108;8.640;2022-07-04T07:33:55;22.00;98.80
26342;DHT22;14054;50.108;8.640;2022-07-04T07:36:20;21.90;99.30
26342;DHT22;14054;50.108;8.640;2022-07-04T07:38:46;22.20;99.10
26342;DHT22;14054;50.108;8.640;2022-07-04T07:41:11;22.50;98.70
26342;DHT22;14054;50.108;8.640;2022-07-04T07:43:37;22.60;98.30
26342;DHT22;14054;50.108;8.640;2022-07-04T07:46:07;22.90;98.10
26342;DHT22;14054;50.108;8.640;2022-07-04T07:48:33;23.00;97.50
26342;DHT22;14054;50.108;8.640;2022-07-04T07:50:59;23.10;96.70
26342;DHT22;14054;50.108;8.640;2022-07-04T07:53:24;23.00;95.90
26342;DHT22;14054;50.108;8.640;2022-07-04T07:55:50;22.90;97.10
26342;DHT22;14054;50.108;8.640;2022-07-04T07:58:16;23.00;96.20
26342;DHT22;14054;50.108;8.640;2022-07-04T08:00:41;23.10;96.70
26342;DHT22;14054;50.108;8.640;2022-07-04T08:03:07;23.20;96.50
26342;DHT22;14054;50.108;8.640;2022-07-04T08:05:51;23.50;96.10
26342;DHT22;14054;50.108;8.640;2022-07-04T08:08:17;23.50;96.10
26342;DHT22;14054;50.108;8.640;2022-07-04T08:10:42;23.60;95.50
26342;DHT22;14054;50.108;8.640;2022-07-04T08:13:08;22.80;96.50
26342;DHT22;14054;50.108;8.640;2022-07-04T08:15:33;22.40;97.70
26342;DHT22;14054;50.108;8.640;2022-07-04T08:17:59;22.30;97.90
26342;DHT22;14054;50.108;8.640;2022-07-04T08:20:25;22.20;98.50
26342;DHT22;14054;50.108;8.640;2022-07-04T08:22:51;22.50;98.20
26342;DHT22;14054;50.108;8.640;2022-07-04T08:25:16;22.60;98.20
26342;DHT22;14054;50.108;8.640;2022-07-04T08:27:43;22.60;97.10
26342;DHT22;14054;50.108;8.640;2022-07-04T08:30:09;22.70;97.50
26342;DHT22;14054;50.108;8.640;2022-07-04T08:32:34;22.70;97.00
26342;DHT22;14054;50.108;8.640;2022-07-04T08:35:01;22.50;96.20
26342;DHT22;14054;50.108;8.640;2022-07-04T08:37:26;22.50;96.40
26342;DHT22;14054;50.108;8.640;2022-07-04T08:39:53;22.70;96.70
26342;DHT22;14054;50.108;8.640;2022-07-04T08:42:21;22.80;96.40
26342;DHT22;14054;50.108;8.640;2022-07-04T08:44:52;22.70;96.10
26342;DHT22;14054;50.108;8.640;2022-07-04T08:47:23;22.50;96.30
26342;DHT22;14054;50.108;8.640;2022-07-04T08:52:41;23.20;94.60
26342;DHT22;14054;50.108;8.640;2022-07-04T08:55:11;23.40;94.30
26342;DHT22;14054;50.108;8.640;2022-07-04T08:57:56;23.50;94.10
26342;DHT22;14054;50.108;8.640;2022-07-04T09:00:40;23.60;93.60
26342;DHT22;14054;50.108;8.640;2022-07-04T09:03:06;23.40;93.10
26342;DHT22;14054;50.108;8.640;2022-07-04T09:05:32;23.80;93.40
26342;DHT22;14054;50.108;8.640;2022-07-04T09:07:59;24.00;92.10
26342;DHT22;14054;50.108;8.640;2022-07-04T09:10:25;23.60;91.90
26342;DHT22;14054;50.108;8.640;2022-07-04T09:12:51;23.70;91.70
26342;DHT22;14054;50.108;8.640;2022-07-04T09:15:17;23.80;91.70
26342;DHT22;14054;50.108;8.640;2022-07-04T09:17:43;24.00;91.40
26342;DHT22;14054;50.108;8.640;2022-07-04T09:20:20;23.90;91.90
26342;DHT22;14054;50.108;8.640;2022-07-04T09:22:48;24.00;91.40
26342;DHT22;14054;50.108;8.640;2022-07-04T09:25:15;23.90;91.50
26342;DHT22;14054;50.108;8.640;2022-07-04T09:27:46;24.20;91.40
26342;DHT22;14054;50.108;8.640;2022-07-04T09:30:14;24.00;91.20
26342;DHT22;14054;50.108;8.640;2022-07-04T09:32:43;24.00;91.30
26342;DHT22;14054;50.108;8.640;2022-07-04T09:35:16;23.80;91.50
26342;DHT22;14054;50.108;8.640;2022-07-04T09:37:44;24.20;91.10
26342;DHT22;14054;50.108;8.640;2022-07-04T09:40:35;24.40;90.80
26342;DHT22;14054;50.108;8.640;2022-07-04T09:43:25;24.30;90.20
26342;DHT22;14054;50.108;8.640;2022-07-04T09:45:54;24.50;90.50
26342;DHT22;14054;50.108;8.640;2022-07-04T09:48:21;24.80;90.10
26342;DHT22;14054;50.108;8.640;2022-07-04T09:50:46;24.80;88.60
26342;DHT22;14054;50.108;8.640;2022-07-04T09:53:12;25.00;89.60
26342;DHT22;14054;50.108;8.640;2022-07-04T09:55:38;25.10;88.40
26342;DHT22;14054;50.108;8.640;2022-07-04T09:58:12;25.30;86.40
26342;DHT22;14054;50.108;8.640;2022-07-04T10:00:45;25.30;85.10
26342;DHT22;14054;50.108;8.640;2022-07-04T10:06:03;24.50;84.70
26342;DHT22;14054;50.108;8.640;2022-07-04T10:08:29;24.40;84.60
26342;DHT22;14054;50.108;8.640;2022-07-04T10:10:59;24.80;82.70
26342;DHT22;14054;50.108;8.640;2022-07-04T10:13:25;24.80;79.60
26342;DHT22;14054;50.108;8.640;2022-07-04T10:15:51;25.20;79.60
26342;DHT22;14054;50.108;8.640;2022-07-04T10:18:21;25.90;78.20
26342;DHT22;14054;50.108;8.640;2022-07-04T10:20:49;25.80;74.50
26342;DHT22;14054;50.108;8.640;2022-07-04T10:23:15;26.20;74.60
26342;DHT22;14054;50.108;8.640;2022-07-04T10:25:42;26.40;72.60
26342;DHT22;14054;50.108;8.640;2022-07-04T10:28:08;26.00;72.70
26342;DHT22;14054;50.108;8.640;2022-07-04T10:30:35;25.70;73.70
26342;DHT22;14054;50.108;8.640;2022-07-04T10:33:06;25.70;75.40
26342;DHT22;14054;50.108;8.640;2022-07-04T10:35:51;25.70;75.90
26342;DHT22;14054;50.108;8.640;2022-07-04T10:38:20;26.20;74.90
26342;DHT22;14054;50.108;8.640;2022-07-04T10:40:51;26.30;74.70
26342;DHT22;14054;50.108;8.640;2022-07-04T10:48:28;26.70;70.20
26342;DHT22;14054;50.108;8.640;2022-07-04T10:53:24;26.10;68.70
26342;DHT22;14054;50.108;8.640;2022-07-04T10:55:50;26.30;67.80
26342;DHT22;14054;50.108;8.640;2022-07-04T10:58:38;26.40;70.20
26342;DHT22;14054;50.108;8.640;2022-07-04T11:01:14;26.20;68.60
26342;DHT22;14054;50.108;8.640;2022-07-04T11:03:48;26.20;69.40
26342;DHT22;14054;50.108;8.640;2022-07-04T11:09:17;27.30;68.60
26342;DHT22;14054;50.108;8.640;2022-07-04T11:12:03;27.70;63.00
26342;DHT22;14054;50.108;8.640;2022-07-04T11:14:39;27.90;62.90
26342;DHT22;14054;50.108;8.640;2022-07-04T11:17:07;27.90;59.20
26342;DHT22;14054;50.108;8.640;2022-07-04T11:19:32;27.10;63.90
26342;DHT22;14054;50.108;8.640;2022-07-04T11:21:58;27.30;63.70
26342;DHT22;14054;50.108;8.640;2022-07-04T11:24:25;29.60;89.30
26342;DHT22;14054;50.108;8.640;2022-07-04T11:26:51;29.80;83.60
26342;DHT22;14054;50.108;8.640;2022-07-04T11:29:17;30.40;56.40
26342;DHT22;14054;50.108;8.640;2022-07-04T11:31:48;30.80;56.00
26342;DHT22;14054;50.108;8.640;2022-07-04T11:34:14;31.90;53.40
26342;DHT22;14054;50.108;8.640;2022-07-04T11:36:41;31.50;52.10
26342;DHT22;14054;50.108;8.640;2022-07-04T11:39:09;31.50;49.40
26342;DHT22;14054;50.108;8.640;2022-07-04T11:41:40;31.70;48.40
26342;DHT22;14054;50.108;8.640;2022-07-04T11:44:33;32.30;47.50
26342;DHT22;14054;50.108;8.640;2022-07-04T11:47:31;32.70;67.40
26342;DHT22;14054;50.108;8.640;2022-07-04T11:49:58;32.50;59.50
26342;DHT22;14054;50.108;8.640;2022-07-04T11:52:30;33.30;59.50
26342;DHT22;14054;50.108;8.640;2022-07-04T11:54:56;33.80;44.80
26342;DHT22;14054;50.108;8.640;2022-07-04T11:57:25;33.80;45.00
26342;DHT22;14054;50.108;8.640;2022-07-04T12:02:18;34.40;43.60
26342;DHT22;14054;50.108;8.640;2022-07-04T12:04:43;34.40;43.40
26342;DHT22;14054;50.108;8.640;2022-07-04T12:07:11;34.20;42.70
26342;DHT22;14054;50.108;8.640;2022-07-04T12:09:37;34.50;43.00
26342;DHT22;14054;50.108;8.640;2022-07-04T12:12:03;34.50;41.80
26342;DHT22;14054;50.108;8.640;2022-07-04T12:14:29;34.90;41.40
26342;DHT22;14054;50.108;8.640;2022-07-04T12:19:50;34.70;40.30
26342;DHT22;14054;50.108;8.640;2022-07-04T12:24:56;35.50;38.90
26342;DHT22;14054;50.108;8.640;2022-07-04T12:27:23;35.80;37.80
26342;DHT22;14054;50.108;8.640;2022-07-04T12:29:50;34.40;37.70
26342;DHT22;14054;50.108;8.640;2022-07-04T12:32:16;34.30;38.90
26342;DHT22;14054;50.108;8.640;2022-07-04T12:34:43;34.20;38.40
26342;DHT22;14054;50.108;8.640;2022-07-04T12:37:10;34.90;38.20
26342;DHT22;14054;50.108;8.640;2022-07-04T12:39:38;34.50;38.80
26342;DHT22;14054;50.108;8.640;2022-07-04T12:44:33;35.10;38.30
26342;DHT22;14054;50.108;8.640;2022-07-04T12:46:59;35.70;37.70
26342;DHT22;14054;50.108;8.640;2022-07-04T12:49:25;34.80;38.20
26342;DHT22;14054;50.108;8.640;2022-07-04T12:51:51;35.60;38.60
26342;DHT22;14054;50.108;8.640;2022-07-04T12:54:16;36.30;37.70
26342;DHT22;14054;50.108;8.640;2022-07-04T12:56:44;36.00;37.20
26342;DHT22;14054;50.108;8.640;2022-07-04T12:59:15;36.20;36.90
26342;DHT22;14054;50.108;8.640;2022-07-04T13:01:43;35.80;36.50
26342;DHT22;14054;50.108;8.640;2022-07-04T13:04:09;35.50;37.90
26342;DHT22;14054;50.108;8.640;2022-07-04T13:06:36;35.70;36.20
26342;DHT22;14054;50.108;8.640;2022-07-04T13:09:03;35.40;36.20
26342;DHT22;14054;50.108;8.640;2022-07-04T13:11:29;34.60;37.80
26342;DHT22;14054;50.108;8.640;2022-07-04T13:14:13;35.40;38.80
26342;DHT22;14054;50.108;8.640;2022-07-04T13:16:38;36.50;36.20
26342;DHT22;14054;50.108;8.640;2022-07-04T13:19:04;35.10;36.80
26342;DHT22;14054;50.108;8.640;2022-07-04T13:21:30;35.30;37.70
26342;DHT22;14054;50.108;8.640;2022-07-04T13:23:55;34.10;36.80
26342;DHT22;14054;50.108;8.640;2022-07-04T13:26:21;34.00;38.20
26342;DHT22;14054;50.108;8.640;2022-07-04T13:28:47;34.70;37.30
26342;DHT22;14054;50.108;8.640;2022-07-04T13:31:13;35.20;36.70
26342;DHT22;14054;50.108;8.640;2022-07-04T13:33:39;34.90;37.10
26342;DHT22;14054;50.108;8.640;2022-07-04T13:36:05;35.70;36.60
26342;DHT22;14054;50.108;8.640;2022-07-04T13:38:31;35.50;36.00
26342;DHT22;14054;50.108;8.640;2022-07-04T13:40:57;35.40;35.60
26342;DHT22;14054;50.108;8.640;2022-07-04T13:43:25;34.30;37.40
26342;DHT22;14054;50.108;8.640;2022-07-04T13:45:54;34.10;38.00
26342;DHT22;14054;50.108;8.640;2022-07-04T13:48:20;34.10;37.20
26342;DHT22;14054;50.108;8.640;2022-07-04T13:50:45;33.90;37.40
26342;DHT22;14054;50.108;8.640;2022-07-04T13:53:11;34.80;37.10
26342;DHT22;14054;50.108;8.640;2022-07-04T13:55:37;35.20;37.60
26342;DHT22;14054;50.108;8.640;2022-07-04T13:58:03;35.30;37.50
26342;DHT22;14054;50.108;8.640;2022-07-04T14:00:29;35.00;35.50
26342;DHT22;14054;50.108;8.640;2022-07-04T14:02:55;34.80;36.30
26342;DHT22;14054;50.108;8.640;2022-07-04T14:05:21;34.80;36.30
26342;DHT22;14054;50.108;8.640;2022-07-04T14:07:46;34.50;35.60
26342;DHT22;14054;50.108;8.640;2022-07-04T14:10:12;35.10;35.60
26342;DHT22;14054;50.108;8.640;2022-07-04T14:12:38;35.70;35.10
26342;DHT22;14054;50.108;8.640;2022-07-04T14:15:04;35.20;35.20
26342;DHT22;14054;50.108;8.640;2022-07-04T14:17:29;35.50;35.10
26342;DHT22;14054;50.108;8.640;2022-07-04T14:19:55;34.60;35.70
26342;DHT22;14054;50.108;8.640;2022-07-04T14:22:21;34.60;35.70
26342;DHT22;14054;50.108;8.640;2022-07-04T14:24:46;34.80;35.50
26342;DHT22;14054;50.108;8.640;2022-07-04T14:27:12;34.60;36.10
26342;DHT22;14054;50.108;8.640;2022-07-04T14:29:38;34.70;36.20
26342;DHT22;14054;50.108;8.640;2022-07-04T14:32:04;35.00;35.80
26342;DHT22;14054;50.108;8.640;2022-07-04T14:34:29;35.60;35.10
26342;DHT22;14054;50.108;8.640;2022-07-04T14:36:55;34.90;35.00
26342;DHT22;14054;50.108;8.640;2022-07-04T14:39:20;35.60;35.10
26342;DHT22;14054;50.108;8.640;2022-07-04T14:41:49;35.80;35.40
26342;DHT22;14054;50.108;8.640;2022-07-04T14:44:15;35.20;34.60
26342;DHT22;14054;50.108;8.640;2022-07-04T14:46:40;35.50;34.70
26342;DHT22;14054;50.108;8.640;2022-07-04T14:49:06;36.10;34.60
26342;DHT22;14054;50.108;8.640;2022-07-04T14:51:31;34.70;36.90
26342;DHT22;14054;50.108;8.640;2022-07-04T14:53:57;35.70;35.80
26342;DHT22;14054;50.108;8.640;2022-07-04T14:56:23;36.90;35.30
26342;DHT22;14054;50.108;8.640;2022-07-04T14:58:48;35.80;34.80
26342;DHT22;14054;50.108;8.640;2022-07-04T15:01:14;35.50;35.20
26342;DHT22;14054;50.108;8.640;2022-07-04T15:03:40;35.10;35.30
26342;DHT22;14054;50.108;8.640;2022-07-04T15:06:05;33.60;36.20
26342;DHT22;14054;50.108;8.640;2022-07-04T15:08:31;31.90;39.10
26342;DHT22;14054;50.108;8.640;2022-07-04T15:13:22;31.30;39.70
26342;DHT22;14054;50.108;8.640;2022-07-04T15:20:39;30.30;78.20
26342;DHT22;14054;50.108;8.640;2022-07-04T15:23:24;29.60;43.20
26342;DHT22;14054;50.108;8.640;2022-07-04T15:26:08;29.30;44.10
26342;DHT22;14054;50.108;8.640;2022-07-04T15:28:34;28.90;44.30
26342;DHT22;14054;50.108;8.640;2022-07-04T15:31:00;28.50;44.60
26342;DHT22;14054;50.108;8.640;2022-07-04T15:33:28;28.60;44.80
26342;DHT22;14054;50.108;8.640;2022-07-04T15:35:56;28.70;44.60
26342;DHT22;14054;50.108;8.640;2022-07-04T15:38:22;28.50;45.00
26342;DHT22;14054;50.108;8.640;2022-07-04T15:40:48;28.40;45.20
26342;DHT22;14054;50.108;8.640;2022-07-04T15:43:14;28.30;45.30
26342;DHT22;14054;50.108;8.640;2022-07-04T15:45:39;28.30;45.60
26342;DHT22;14054;50.108;8.640;2022-07-04T15:48:05;28.30;45.40
26342;DHT22;14054;50.108;8.640;2022-07-04T15:50:31;28.10;45.70
26342;DHT22;14054;50.108;8.640;2022-07-04T15:52:56;28.00;46.40
26342;DHT22;14054;50.108;8.640;2022-07-04T15:55:22;28.30;59.80
26342;DHT22;14054;50.108;8.640;2022-07-04T15:57:47;28.00;59.90
26342;DHT22;14054;50.108;8.640;2022-07-04T16:00:14;27.80;45.90
26342;DHT22;14054;50.108;8.640;2022-07-04T16:02:40;27.60;47.20